createdAt,value
2023-04-11T00:00:56.426Z,43.18
2023-04-11T00:01:56.579Z,42.98
2023-04-11T00:02:56.717Z,42.30
2023-04-11T00:03:56.614Z,43.72
2023-04-11T00:04:56.564Z,44.20
2023-04-11T00:05:56.566Z,42.31
2023-04-11T00:06:56.600Z,45.21
2023-04-11T00:07:56.631Z,44.41
2023-04-11T00:08:57.046Z,44.15
2023-04-11T00:09:56.663Z,43.91
2023-04-11T00:10:56.695Z,41.83
2023-04-11T00:11:56.715Z,43.03
2023-04-11T00:12:56.977Z,44.48
2023-04-11T00:13:56.769Z,40.94
2023-04-11T00:14:56.785Z,42.52
2023-04-11T00:15:56.881Z,40.35
2023-04-11T00:16:56.910Z,41.43
2023-04-11T00:17:56.900Z,39.51
2023-04-11T00:18:57.096Z,40.80
2023-04-11T00:19:56.931Z,39.99
2023-04-11T00:20:56.966Z,38.25
2023-04-11T00:21:56.988Z,40.12
2023-04-11T00:22:57.014Z,37.45
2023-04-11T00:23:57.088Z,39.88
2023-04-11T00:24:57.076Z,38.34
2023-04-11T00:25:57.103Z,37.36
2023-04-11T00:26:57.149Z,36.61
2023-04-11T00:27:57.166Z,41.03
2023-04-11T00:28:57.265Z,38.29
2023-04-11T00:29:57.222Z,36.01
2023-04-11T00:30:57.243Z,41.89
2023-04-11T00:31:57.303Z,41.64
2023-04-11T00:32:57.330Z,39.83
2023-04-11T00:33:57.320Z,41.61
2023-04-11T00:34:57.356Z,40.41
2023-04-11T00:35:57.443Z,40.37
2023-04-11T00:36:57.482Z,41.54
2023-04-11T00:37:57.434Z,38.87
2023-04-11T00:38:57.659Z,41.68
2023-04-11T00:39:57.486Z,44.27
2023-04-11T00:40:57.534Z,36.69
2023-04-11T00:41:57.576Z,38.25
2023-04-11T00:42:57.624Z,38.92
2023-04-11T00:43:57.744Z,42.20
2023-04-11T00:44:57.657Z,40.61
2023-04-11T00:45:57.687Z,41.66
2023-04-11T00:46:57.676Z,42.16
2023-04-11T00:47:57.734Z,41.36
2023-04-11T00:48:58.047Z,41.41
2023-04-11T00:49:57.754Z,41.13
2023-04-11T00:50:57.774Z,42.04
2023-04-11T00:51:57.796Z,39.83
2023-04-11T00:52:57.814Z,44.62
2023-04-11T00:53:57.853Z,42.62
2023-04-11T00:54:57.874Z,42.25
2023-04-11T00:55:57.902Z,45.22
2023-04-11T00:56:57.930Z,46.35
2023-04-11T00:57:57.951Z,43.61
2023-04-11T00:58:57.978Z,47.82
2023-04-11T00:59:58.001Z,44.60
2023-04-11T01:00:58.036Z,41.09
2023-04-11T01:01:58.191Z,41.83
2023-04-11T01:02:58.186Z,46.73
2023-04-11T01:03:58.166Z,42.80
2023-04-11T01:04:58.133Z,47.52
2023-04-11T01:05:58.151Z,47.59
2023-04-11T01:06:58.177Z,46.63
2023-04-11T01:07:58.217Z,47.82
2023-04-11T01:08:58.406Z,47.43
2023-04-11T01:09:58.272Z,46.78
2023-04-11T01:10:58.298Z,46.99
2023-04-11T01:11:58.333Z,45.47
2023-04-11T01:12:58.360Z,49.59
2023-04-11T01:13:58.389Z,47.02
2023-04-11T01:14:58.441Z,50.20
2023-04-11T01:15:58.446Z,49.97
2023-04-11T01:16:58.552Z,48.82
2023-04-11T01:17:58.579Z,45.40
2023-04-11T01:18:58.531Z,44.38
2023-04-11T01:19:58.556Z,50.92
2023-04-11T01:20:58.604Z,47.78
2023-04-11T01:21:58.621Z,46.38
2023-04-11T01:22:58.639Z,48.94
2023-04-11T01:23:58.674Z,50.84
2023-04-11T01:24:58.706Z,49.29
2023-04-11T01:25:58.736Z,48.28
2023-04-11T01:26:58.774Z,46.46
2023-04-11T01:27:58.806Z,50.36
2023-04-11T01:28:58.833Z,47.13
2023-04-11T01:29:58.852Z,49.08
2023-04-11T01:30:58.891Z,46.31
2023-04-11T01:31:58.910Z,45.78
2023-04-11T01:32:58.972Z,49.92
2023-04-11T01:33:58.865Z,46.16
2023-04-11T01:34:58.839Z,47.33
2023-04-11T01:35:58.856Z,50.91
2023-04-11T01:36:58.809Z,49.68
2023-04-11T01:37:58.802Z,48.97
2023-04-11T01:38:58.771Z,50.11
2023-04-11T01:39:58.764Z,47.21
2023-04-11T01:40:58.774Z,49.23
2023-04-11T01:41:58.763Z,48.45
2023-04-11T01:42:58.745Z,50.35
2023-04-11T01:43:58.723Z,50.82
2023-04-11T01:44:58.704Z,46.52
2023-04-11T01:45:58.668Z,47.69
2023-04-11T01:46:58.680Z,51.31
2023-04-11T01:47:58.746Z,50.64
2023-04-11T01:48:58.862Z,52.43
2023-04-11T01:49:58.646Z,48.95
2023-04-11T01:50:58.611Z,51.34
2023-04-11T01:51:58.593Z,46.54
2023-04-11T01:52:58.585Z,52.22
2023-04-11T01:53:58.554Z,51.72
2023-04-11T01:54:58.537Z,48.24
2023-04-11T01:55:58.498Z,51.85
2023-04-11T01:56:58.485Z,46.52
2023-04-11T01:57:58.465Z,51.03
2023-04-11T01:58:58.431Z,47.99
2023-04-11T01:59:58.414Z,48.02
2023-04-11T02:00:58.412Z,49.19
2023-04-11T02:01:58.482Z,48.45
2023-04-11T02:02:58.495Z,48.13
2023-04-11T02:03:58.469Z,52.23
2023-04-11T02:04:58.324Z,51.45
2023-04-11T02:05:58.300Z,50.42
2023-04-11T02:06:58.279Z,51.15
2023-04-11T02:07:58.257Z,50.39
2023-04-11T02:08:58.247Z,52.36
2023-04-11T02:09:58.237Z,49.92
2023-04-11T02:10:58.191Z,48.71
2023-04-11T02:11:58.164Z,52.41
2023-04-11T02:12:58.154Z,50.07
2023-04-11T02:13:58.118Z,48.82
2023-04-11T02:14:58.090Z,51.85
2023-04-11T02:15:58.100Z,51.59
2023-04-11T02:16:58.037Z,47.83
2023-04-11T02:17:58.055Z,47.65
2023-04-11T02:18:58.241Z,49.96
2023-04-11T02:19:58.059Z,43.97
2023-04-11T02:20:57.956Z,48.70
2023-04-11T02:21:57.925Z,47.93
2023-04-11T02:22:57.903Z,52.55
2023-04-11T02:23:58.775Z,50.11
2023-04-11T02:24:57.864Z,47.69
2023-04-11T02:25:57.848Z,50.20
2023-04-11T02:26:57.815Z,49.40
2023-04-11T02:27:57.850Z,45.45
2023-04-11T02:28:57.892Z,47.38
2023-04-11T02:29:57.761Z,49.17
2023-04-11T02:30:57.807Z,46.64
2023-04-11T02:31:57.748Z,47.95
2023-04-11T02:32:57.703Z,49.85
2023-04-11T02:33:57.656Z,45.74
2023-04-11T02:34:57.633Z,48.17
2023-04-11T02:35:57.614Z,50.17
2023-04-11T02:36:57.589Z,49.99
2023-04-11T02:37:57.560Z,46.07
2023-04-11T02:38:57.644Z,50.24
2023-04-11T02:39:57.545Z,47.79
2023-04-11T02:40:57.485Z,46.76
2023-04-11T02:41:57.532Z,48.38
2023-04-11T02:42:57.444Z,46.77
2023-04-11T02:43:57.414Z,47.17
2023-04-11T02:44:57.398Z,46.23
2023-04-11T02:46:09.503Z,48.60
2023-04-11T02:46:58.349Z,48.65
2023-04-11T02:47:57.309Z,48.74
2023-04-11T02:48:57.515Z,49.12
2023-04-11T02:49:57.215Z,48.11
2023-04-11T02:50:57.181Z,44.79
2023-04-11T02:51:57.161Z,45.46
2023-04-11T02:52:57.138Z,46.67
2023-04-11T02:53:57.106Z,43.09
2023-04-11T02:54:57.072Z,45.35
2023-04-11T02:55:57.082Z,47.19
2023-04-11T02:56:57.009Z,46.76
2023-04-11T02:57:56.968Z,47.36
2023-04-11T02:58:57.186Z,44.12
2023-04-11T02:59:56.899Z,46.00
2023-04-11T03:00:56.863Z,44.48
2023-04-11T03:01:56.880Z,43.95
2023-04-11T03:02:56.881Z,44.67
2023-04-11T03:03:56.817Z,45.95
2023-04-11T03:04:56.722Z,46.41
2023-04-11T03:05:56.684Z,47.34
2023-04-11T03:06:56.649Z,43.19
2023-04-11T03:07:56.621Z,43.40
2023-04-11T03:08:56.985Z,47.53
2023-04-11T03:09:56.534Z,46.07
2023-04-11T03:10:56.492Z,45.75
2023-04-11T03:11:56.448Z,44.82
2023-04-11T03:12:56.395Z,46.17
2023-04-11T03:13:56.379Z,47.66
2023-04-11T03:14:56.339Z,44.54
2023-04-11T03:15:56.326Z,46.32
2023-04-11T03:16:56.276Z,42.52
2023-04-11T03:17:56.274Z,45.22
2023-04-11T03:18:56.476Z,45.31
2023-04-11T03:19:56.165Z,44.86
2023-04-11T03:20:56.221Z,45.64
2023-04-11T03:21:56.102Z,45.87
2023-04-11T03:22:56.073Z,41.81
2023-04-11T03:23:56.044Z,43.27
2023-04-11T03:24:56.004Z,45.19
2023-04-11T03:25:55.976Z,43.21
2023-04-11T03:26:55.945Z,45.42
2023-04-11T03:27:55.916Z,47.01
2023-04-11T03:28:55.990Z,44.55
2023-04-11T03:29:55.858Z,46.25
2023-04-11T03:30:55.850Z,42.82
2023-04-11T03:31:55.808Z,46.33
2023-04-11T03:32:55.833Z,44.57
2023-04-11T03:33:55.751Z,41.81
2023-04-11T03:34:55.729Z,42.81
2023-04-11T03:35:55.744Z,43.50
2023-04-11T03:36:55.650Z,43.74
2023-04-11T03:37:55.624Z,44.86
2023-04-11T03:38:55.840Z,42.96
2023-04-11T03:39:55.562Z,43.78
2023-04-11T03:40:55.533Z,45.23
2023-04-11T03:41:55.499Z,39.30
2023-04-11T03:42:55.478Z,43.39
2023-04-11T03:43:55.447Z,46.36
2023-04-11T03:44:55.404Z,43.99
2023-04-11T03:45:55.371Z,46.47
2023-04-11T03:46:55.477Z,44.26
2023-04-11T03:47:55.348Z,43.40
2023-04-11T03:48:55.509Z,45.08
2023-04-11T03:49:55.240Z,46.41
2023-04-11T03:50:55.202Z,41.78
2023-04-11T03:51:55.179Z,42.98
2023-04-11T03:52:55.139Z,43.66
2023-04-11T03:53:55.121Z,46.12
2023-04-11T03:54:55.080Z,40.72
2023-04-11T03:55:55.053Z,47.99
2023-04-11T03:56:55.036Z,44.00
2023-04-11T03:57:54.993Z,43.02
2023-04-11T03:58:55.181Z,43.60
2023-04-11T03:59:54.964Z,43.85
2023-04-11T04:00:54.943Z,41.62
2023-04-11T04:01:55.025Z,44.61
2023-04-11T04:02:55.065Z,46.41
2023-04-11T04:03:55.299Z,46.47
2023-04-11T04:04:55.016Z,46.60
2023-04-11T04:05:54.849Z,44.70
2023-04-11T04:06:54.830Z,41.11
2023-04-11T04:07:55.910Z,48.78
2023-04-11T04:08:54.792Z,47.02
2023-04-11T04:09:54.766Z,42.88
2023-04-11T04:10:54.756Z,43.18
2023-04-11T04:11:54.727Z,45.87
2023-04-11T04:12:54.712Z,44.90
2023-04-11T04:13:54.932Z,45.07
2023-04-11T04:14:54.668Z,43.83
2023-04-11T04:15:54.675Z,45.30
2023-04-11T04:16:54.727Z,47.05
2023-04-11T04:17:54.763Z,42.25
2023-04-11T04:18:54.600Z,46.11
2023-04-11T04:19:54.567Z,44.47
2023-04-11T04:20:54.563Z,46.69
2023-04-11T04:21:54.529Z,45.26
2023-04-11T04:22:54.492Z,42.98
2023-04-11T04:23:54.697Z,45.51
2023-04-11T04:24:54.448Z,45.48
2023-04-11T04:25:54.424Z,43.33
2023-04-11T04:26:54.401Z,44.24
2023-04-11T04:27:54.370Z,44.80
2023-04-11T04:28:54.361Z,42.95
2023-04-11T04:29:56.361Z,45.16
2023-04-11T04:30:55.310Z,45.30
2023-04-11T04:31:54.306Z,45.35
2023-04-11T04:32:54.281Z,46.01
2023-04-11T04:33:54.352Z,46.68
2023-04-11T04:34:54.199Z,46.18
2023-04-11T04:35:54.191Z,41.07
2023-04-11T04:36:54.124Z,43.62
2023-04-11T04:37:54.209Z,39.41
2023-04-11T04:38:54.073Z,39.19
2023-04-11T04:39:54.048Z,41.32
2023-04-11T04:40:54.001Z,42.90
2023-04-11T04:41:53.977Z,43.75
2023-04-11T04:42:53.930Z,42.96
2023-04-11T04:43:54.064Z,41.38
2023-04-11T04:44:53.861Z,42.94
2023-04-11T04:45:53.907Z,45.41
2023-04-11T04:46:53.792Z,45.03
2023-04-11T04:47:53.801Z,42.30
2023-04-11T04:48:53.723Z,41.38
2023-04-11T04:49:53.690Z,45.11
2023-04-11T04:50:53.686Z,41.50
2023-04-11T04:51:53.633Z,38.60
2023-04-11T04:52:53.594Z,43.62
2023-04-11T04:53:53.737Z,44.68
2023-04-11T04:54:53.521Z,43.47
2023-04-11T04:55:53.491Z,40.70
2023-04-11T04:56:53.468Z,40.76
2023-04-11T04:57:53.450Z,40.35
2023-04-11T04:58:53.410Z,38.59
2023-04-11T04:59:53.382Z,43.49
2023-04-11T05:00:53.368Z,42.44
2023-04-11T05:01:53.577Z,44.14
2023-04-11T05:02:53.353Z,43.71
2023-04-11T05:03:53.356Z,39.54
2023-04-11T05:04:53.220Z,37.79
2023-04-11T05:05:53.202Z,41.67
2023-04-11T05:06:53.175Z,41.31
2023-04-11T05:07:53.126Z,41.58
2023-04-11T05:08:53.087Z,39.78
2023-04-11T05:09:53.052Z,38.36
2023-04-11T05:10:53.016Z,41.09
2023-04-11T05:11:52.984Z,37.00
2023-04-11T05:12:52.959Z,42.93
2023-04-11T05:13:52.922Z,44.84
2023-04-11T05:14:52.885Z,40.32
2023-04-11T05:15:52.867Z,43.42
2023-04-11T05:16:52.870Z,41.48
2023-04-11T05:17:52.847Z,43.85
2023-04-11T05:18:52.747Z,43.74
2023-04-11T05:19:52.719Z,40.47
2023-04-11T05:20:52.700Z,43.09
2023-04-11T05:21:52.657Z,42.21
2023-04-11T05:22:52.635Z,42.34
2023-04-11T05:23:52.601Z,42.63
2023-04-11T05:24:52.582Z,39.92
2023-04-11T05:25:52.531Z,37.94
2023-04-11T05:26:52.499Z,38.94
2023-04-11T05:27:52.471Z,43.18
2023-04-11T05:28:52.527Z,45.56
2023-04-11T05:29:52.398Z,49.11
2023-04-11T05:30:52.407Z,52.68
2023-04-11T05:31:52.347Z,61.22
2023-04-11T05:32:52.381Z,72.00
2023-04-11T05:33:52.278Z,80.27
2023-04-11T05:34:52.249Z,86.82
2023-04-11T05:35:52.274Z,94.15
2023-04-11T05:36:52.192Z,99.47
2023-04-11T05:37:52.152Z,110.66
2023-04-11T05:38:52.202Z,119.50
2023-04-11T05:39:52.084Z,130.84
2023-04-11T05:40:52.052Z,136.80
2023-04-11T05:41:52.003Z,146.94
2023-04-11T05:42:51.961Z,158.18
2023-04-11T05:43:51.920Z,168.39
2023-04-11T05:44:54.800Z,178.87
2023-04-11T05:45:51.846Z,194.53
2023-04-11T05:46:51.776Z,199.45
2023-04-11T05:47:51.804Z,206.88
2023-04-11T05:48:51.706Z,219.85
2023-04-11T05:49:51.665Z,232.92
2023-04-11T05:50:51.636Z,240.59
2023-04-11T05:51:51.593Z,247.57
2023-04-11T05:52:51.533Z,247.44
2023-04-11T05:53:51.488Z,248.20
2023-04-11T05:54:51.446Z,249.92
2023-04-11T05:55:51.388Z,251.91
2023-04-11T05:56:51.345Z,249.42
2023-04-11T05:57:51.297Z,160.11
2023-04-11T05:58:51.257Z,142.53
2023-04-11T05:59:51.221Z,114.49
2023-04-11T06:00:51.192Z,75.35
2023-04-11T06:01:51.182Z,40.21
2023-04-11T06:02:51.221Z,24.92
2023-04-11T06:03:51.910Z,26.17
2023-04-11T06:04:51.094Z,44.81
2023-04-11T06:05:51.012Z,75.50
2023-04-11T06:06:50.967Z,103.33
2023-04-11T06:07:50.935Z,112.04
2023-04-11T06:08:50.901Z,120.84
2023-04-11T06:09:50.867Z,128.25
2023-04-11T06:10:50.823Z,138.12
2023-04-11T06:11:50.778Z,149.38
2023-04-11T06:12:50.738Z,154.33
2023-04-11T06:13:50.695Z,159.37
2023-04-11T06:14:50.644Z,165.02
2023-04-11T06:15:50.629Z,170.96
2023-04-11T06:16:50.580Z,175.64
2023-04-11T06:17:50.615Z,180.27
2023-04-11T06:18:50.501Z,189.46
2023-04-11T06:19:50.465Z,193.50
2023-04-11T06:20:50.427Z,199.27
2023-04-11T06:21:50.389Z,197.36
2023-04-11T06:22:50.353Z,193.66
2023-04-11T06:23:50.705Z,203.93
2023-04-11T06:24:50.266Z,209.37
2023-04-11T06:25:50.239Z,216.83
2023-04-11T06:26:50.197Z,220.59
2023-04-11T06:27:50.170Z,220.68
2023-04-11T06:28:50.792Z,214.55
2023-04-11T06:29:50.106Z,147.42
2023-04-11T06:30:50.117Z,103.90
2023-04-11T06:31:50.203Z,84.57
2023-04-11T06:32:50.187Z,71.23
2023-04-11T06:33:50.018Z,62.54
2023-04-11T06:34:49.981Z,59.10
2023-04-11T06:35:50.845Z,60.25
2023-04-11T06:36:49.957Z,59.91
2023-04-11T06:37:49.923Z,73.80
2023-04-11T06:38:49.891Z,91.37
2023-04-11T06:39:49.868Z,100.83
2023-04-11T06:40:49.857Z,123.06
2023-04-11T06:41:49.868Z,144.89
2023-04-11T06:42:49.879Z,153.84
2023-04-11T06:43:49.864Z,161.96
2023-04-11T06:44:50.344Z,165.99
2023-04-11T06:45:49.884Z,167.61
2023-04-11T06:46:49.876Z,171.24
2023-04-11T06:47:49.827Z,176.97
2023-04-11T06:48:49.775Z,179.17
2023-04-11T06:49:49.750Z,182.98
2023-04-11T06:50:49.722Z,184.67
2023-04-11T06:51:49.698Z,176.11
2023-04-11T06:52:49.684Z,133.60
2023-04-11T06:53:49.689Z,102.08
2023-04-11T06:54:49.736Z,81.47
2023-04-11T06:55:49.744Z,65.72
2023-04-11T06:56:49.725Z,49.16
2023-04-11T06:57:49.796Z,30.28
2023-04-11T06:58:49.745Z,25.00
2023-04-11T06:59:49.767Z,25.32
2023-04-11T07:00:49.790Z,28.18
2023-04-11T07:01:49.981Z,32.30
2023-04-11T07:02:50.175Z,36.90
2023-04-11T07:03:50.999Z,37.04
2023-04-11T07:04:49.913Z,38.36
2023-04-11T07:05:50.307Z,42.25
2023-04-11T07:06:49.783Z,48.97
2023-04-11T07:07:49.774Z,61.55
2023-04-11T07:08:49.737Z,64.85
2023-04-11T07:09:49.723Z,65.96
2023-04-11T07:10:49.735Z,71.32
2023-04-11T07:11:49.629Z,74.95
2023-04-11T07:12:49.602Z,80.47
2023-04-11T07:13:49.566Z,82.85
2023-04-11T07:14:49.538Z,89.67
2023-04-11T07:15:49.572Z,94.65
2023-04-11T07:16:49.495Z,102.14
2023-04-11T07:17:51.434Z,106.47
2023-04-11T07:18:49.447Z,114.36
2023-04-11T07:19:49.397Z,119.37
2023-04-11T07:20:49.360Z,122.94
2023-04-11T07:21:49.338Z,132.74
2023-04-11T07:22:49.292Z,138.39
2023-04-11T07:23:49.250Z,142.40
2023-04-11T07:24:49.222Z,146.15
2023-04-11T07:25:49.191Z,151.67
2023-04-11T07:26:49.158Z,152.22
2023-04-11T07:27:49.130Z,156.80
2023-04-11T07:28:49.085Z,159.47
2023-04-11T07:29:49.065Z,160.95
2023-04-11T07:30:49.089Z,164.74
2023-04-11T07:31:49.022Z,163.01
2023-04-11T07:32:49.029Z,166.48
2023-04-11T07:33:48.919Z,165.60
2023-04-11T07:34:48.893Z,167.01
2023-04-11T07:35:48.908Z,167.13
2023-04-11T07:36:48.812Z,168.61
2023-04-11T07:37:48.783Z,169.38
2023-04-11T07:38:48.747Z,171.46
2023-04-11T07:39:48.708Z,172.12
2023-04-11T07:40:48.681Z,171.00
2023-04-11T07:41:48.647Z,172.13
2023-04-11T07:42:48.602Z,168.96
2023-04-11T07:43:48.578Z,171.90
2023-04-11T07:44:48.536Z,171.87
2023-04-11T07:45:48.547Z,170.73
2023-04-11T07:46:48.472Z,170.56
2023-04-11T07:47:48.465Z,169.95
2023-04-11T07:48:48.399Z,170.57
2023-04-11T07:49:48.378Z,169.76
2023-04-11T07:50:48.320Z,170.87
2023-04-11T07:51:48.276Z,172.75
2023-04-11T07:52:48.241Z,172.41
2023-04-11T07:53:48.207Z,172.59
2023-04-11T07:54:48.166Z,171.26
2023-04-11T07:55:48.131Z,173.67
2023-04-11T07:56:48.092Z,171.22
2023-04-11T07:57:48.071Z,172.45
2023-04-11T07:58:48.029Z,172.04
2023-04-11T07:59:48.020Z,172.53
2023-04-11T08:00:47.965Z,170.83
2023-04-11T08:01:48.785Z,171.33
2023-04-11T08:02:47.979Z,170.77
2023-04-11T08:03:48.011Z,169.41
2023-04-11T08:04:47.905Z,171.14
2023-04-11T08:05:47.788Z,170.56
2023-04-11T08:06:47.754Z,168.38
2023-04-11T08:07:47.712Z,167.82
2023-04-11T08:08:47.670Z,167.00
2023-04-11T08:09:47.625Z,167.94
2023-04-11T08:10:47.951Z,168.89
2023-04-11T08:11:47.562Z,165.17
2023-04-11T08:12:47.532Z,164.50
2023-04-11T08:13:47.498Z,171.69
2023-04-11T08:14:47.473Z,146.83
2023-04-11T08:15:47.453Z,131.17
2023-04-11T08:16:47.432Z,102.07
2023-04-11T08:17:47.410Z,93.09
2023-04-11T08:18:47.319Z,88.82
2023-04-11T08:19:47.282Z,96.17
2023-04-11T08:20:47.826Z,86.37
2023-04-11T08:21:47.261Z,96.51
2023-04-11T08:22:47.213Z,101.75
2023-04-11T08:23:47.403Z,71.12
2023-04-11T08:24:47.103Z,50.68
2023-04-11T08:25:47.067Z,63.20
2023-04-11T08:26:47.031Z,46.03
2023-04-11T08:27:47.023Z,20.21
2023-04-11T08:28:46.951Z,46.47
2023-04-11T08:29:46.908Z,67.41
2023-04-11T08:30:46.899Z,84.13
2023-04-11T08:31:46.852Z,95.78
2023-04-11T08:32:46.849Z,104.73
2023-04-11T08:33:46.795Z,111.39
2023-04-11T08:34:46.749Z,118.91
2023-04-11T08:35:46.727Z,127.52
2023-04-11T08:36:46.686Z,133.08
2023-04-11T08:37:46.682Z,139.38
2023-04-11T08:38:46.610Z,146.88
2023-04-11T08:39:46.562Z,156.28
2023-04-11T08:40:46.551Z,161.67
2023-04-11T08:41:46.503Z,166.98
2023-04-11T08:42:47.361Z,172.05
2023-04-11T08:43:46.407Z,175.48
2023-04-11T08:44:46.356Z,183.40
2023-04-11T08:45:46.384Z,191.01
2023-04-11T08:46:46.289Z,197.75
2023-04-11T08:47:46.295Z,201.87
2023-04-11T08:48:46.225Z,205.15
2023-04-11T08:49:46.141Z,214.88
2023-04-11T08:50:46.146Z,216.20
2023-04-11T08:51:46.126Z,221.37
2023-04-11T08:52:46.142Z,225.90
2023-04-11T08:53:46.169Z,230.18
2023-04-11T08:54:46.177Z,237.45
2023-04-11T08:55:46.217Z,244.67
2023-04-11T08:56:46.238Z,248.62
2023-04-11T08:57:46.233Z,250.00
2023-04-11T08:58:46.259Z,249.70
2023-04-11T08:59:46.584Z,247.35
2023-04-11T09:00:46.295Z,249.58
2023-04-11T09:01:46.425Z,250.00
2023-04-11T09:02:46.432Z,250.00
2023-04-11T09:03:46.537Z,249.96
2023-04-11T09:04:46.404Z,249.67
2023-04-11T09:05:46.372Z,250.00
2023-04-11T09:06:46.397Z,249.97
2023-04-11T09:07:46.400Z,248.55
2023-04-11T09:08:46.422Z,247.94
2023-04-11T09:09:47.264Z,249.37
2023-04-11T09:10:46.485Z,250.00
2023-04-11T09:11:46.462Z,249.53
2023-04-11T09:12:46.471Z,249.40
2023-04-11T09:13:46.484Z,249.05
2023-04-11T09:14:46.541Z,249.03
2023-04-11T09:15:46.509Z,248.43
2023-04-11T09:16:46.526Z,250.00
2023-04-11T09:17:46.568Z,246.09
2023-04-11T09:18:46.811Z,245.17
2023-04-11T09:19:48.915Z,249.72
2023-04-11T09:20:47.494Z,249.96
2023-04-11T09:21:46.453Z,250.55
2023-04-11T09:22:46.408Z,251.47
2023-04-11T09:23:46.363Z,253.97
2023-04-11T09:24:46.321Z,256.83
2023-04-11T09:25:46.852Z,249.53
2023-04-11T09:26:46.767Z,249.33
2023-04-11T09:27:46.192Z,248.15
2023-04-11T09:28:46.169Z,247.51
2023-04-11T09:29:46.132Z,248.12
2023-04-11T09:30:46.229Z,249.23
2023-04-11T09:31:47.205Z,249.37
2023-04-11T09:32:46.138Z,249.61
2023-04-11T09:33:46.043Z,250.37
2023-04-11T09:34:45.992Z,251.12
2023-04-11T09:35:45.968Z,251.89
2023-04-11T09:36:45.930Z,249.01
2023-04-11T09:37:45.858Z,247.33
2023-04-11T09:38:45.830Z,247.80
2023-04-11T09:39:45.808Z,248.51
2023-04-11T09:40:45.831Z,249.43
2023-04-11T09:41:45.853Z,248.03
2023-04-11T09:42:45.877Z,249.38
2023-04-11T09:43:45.916Z,248.63
2023-04-11T09:44:45.938Z,249.27
2023-04-11T09:45:54.085Z,248.27
2023-04-11T09:46:46.953Z,248.40
2023-04-11T09:47:45.915Z,248.30
2023-04-11T09:48:47.114Z,248.80
2023-04-11T09:49:45.813Z,248.94
2023-04-11T09:50:45.777Z,249.10
2023-04-11T09:51:45.738Z,247.62
2023-04-11T09:52:45.681Z,248.17
2023-04-11T09:53:45.650Z,247.67
2023-04-11T09:54:45.636Z,247.10
2023-04-11T09:55:45.735Z,247.20
2023-04-11T09:56:45.696Z,247.53
2023-04-11T09:57:45.781Z,246.91
2023-04-11T09:58:45.752Z,248.70
2023-04-11T09:59:45.789Z,247.69
2023-04-11T10:00:45.823Z,248.22
2023-04-11T10:01:45.892Z,248.49
2023-04-11T10:02:46.044Z,247.46
2023-04-11T10:03:45.899Z,248.32
2023-04-11T10:04:45.921Z,247.26
2023-04-11T10:05:45.922Z,246.35
2023-04-11T10:06:45.957Z,246.40
2023-04-11T10:07:46.031Z,246.23
2023-04-11T10:08:46.025Z,246.02
2023-04-11T10:09:46.059Z,244.20
2023-04-11T10:10:46.079Z,244.24
2023-04-11T10:11:46.137Z,242.69
2023-04-11T10:12:46.097Z,242.19
2023-04-11T10:13:46.122Z,242.53
2023-04-11T10:14:46.126Z,242.84
2023-04-11T10:15:46.105Z,243.14
2023-04-11T10:16:46.174Z,241.85
2023-04-11T10:17:46.197Z,243.58
2023-04-11T10:18:46.159Z,242.87
2023-04-11T10:19:46.864Z,242.73
2023-04-11T10:20:46.874Z,242.36
2023-04-11T10:21:46.859Z,242.02
2023-04-11T10:22:46.136Z,240.35
2023-04-11T10:23:46.093Z,242.25
2023-04-11T10:24:46.134Z,241.50
2023-04-11T10:25:46.204Z,239.96
2023-04-11T10:26:47.217Z,241.03
2023-04-11T10:27:46.217Z,241.38
2023-04-11T10:28:46.241Z,240.39
2023-04-11T10:29:46.274Z,240.94
2023-04-11T10:30:46.293Z,240.34
2023-04-11T10:31:46.310Z,241.29
2023-04-11T10:32:46.322Z,240.66
2023-04-11T10:33:46.866Z,240.11
2023-04-11T10:34:46.346Z,239.83
2023-04-11T10:35:46.391Z,238.06
2023-04-11T10:36:46.389Z,237.94
2023-04-11T10:37:46.409Z,239.94
2023-04-11T10:38:46.430Z,239.80
2023-04-11T10:39:46.445Z,237.73
2023-04-11T10:40:46.452Z,236.78
2023-04-11T10:41:46.450Z,237.76
2023-04-11T10:42:46.455Z,238.66
2023-04-11T10:43:46.476Z,238.37
2023-04-11T10:44:46.437Z,237.07
2023-04-11T10:45:46.417Z,235.48
2023-04-11T10:46:46.419Z,233.98
2023-04-11T10:47:46.410Z,233.25
2023-04-11T10:48:46.404Z,232.98
2023-04-11T10:49:47.300Z,233.25
2023-04-11T10:50:46.406Z,230.09
2023-04-11T10:51:46.404Z,231.14
2023-04-11T10:52:46.426Z,230.66
2023-04-11T10:53:46.433Z,229.22
2023-04-11T10:54:46.433Z,228.94
2023-04-11T10:55:46.393Z,227.79
2023-04-11T10:56:46.352Z,226.83
2023-04-11T10:57:46.348Z,226.16
2023-04-11T10:58:46.348Z,227.30
2023-04-11T10:59:46.366Z,226.88
2023-04-11T11:00:46.386Z,227.49
2023-04-11T11:01:52.372Z,226.95
2023-04-11T11:02:47.444Z,227.03
2023-04-11T11:03:46.523Z,226.61
2023-04-11T11:04:46.256Z,227.52
2023-04-11T11:05:46.166Z,227.55
2023-04-11T11:06:54.540Z,226.66
2023-04-11T11:07:47.082Z,227.04
2023-04-11T11:08:46.043Z,227.06
2023-04-11T11:09:45.984Z,226.62
2023-04-11T11:10:45.934Z,227.02
2023-04-11T11:11:45.898Z,225.45
2023-04-11T11:12:45.865Z,225.13
2023-04-11T11:13:45.828Z,224.24
2023-04-11T11:14:45.801Z,225.21
2023-04-11T11:15:45.764Z,222.20
2023-04-11T11:16:45.739Z,222.33
2023-04-11T11:17:45.716Z,220.94
2023-04-11T11:18:45.635Z,221.16
2023-04-11T11:19:45.628Z,219.50
2023-04-11T11:20:45.564Z,220.05
2023-04-11T11:21:45.505Z,219.87
2023-04-11T11:22:45.483Z,215.12
2023-04-11T11:23:45.435Z,213.48
2023-04-11T11:24:45.392Z,210.70
2023-04-11T11:25:45.380Z,210.62
2023-04-11T11:26:45.387Z,211.59
2023-04-11T11:27:45.392Z,207.07
2023-04-11T11:28:45.365Z,211.87
2023-04-11T11:29:45.338Z,214.17
2023-04-11T11:30:45.293Z,215.83
2023-04-11T11:31:45.266Z,217.09
2023-04-11T11:32:45.317Z,216.78
2023-04-11T11:33:45.248Z,218.03
2023-04-11T11:34:45.197Z,217.42
2023-04-11T11:35:45.166Z,217.89
2023-04-11T11:36:45.208Z,218.07
2023-04-11T11:37:45.131Z,217.76
2023-04-11T11:38:45.080Z,217.85
2023-04-11T11:39:45.030Z,218.24
2023-04-11T11:40:44.981Z,217.84
2023-04-11T11:41:44.935Z,219.66
2023-04-11T11:42:44.926Z,217.36
2023-04-11T11:43:44.911Z,217.53
2023-04-11T11:44:44.876Z,218.80
2023-04-11T11:45:44.878Z,217.67
2023-04-11T11:46:44.978Z,215.48
2023-04-11T11:47:44.883Z,216.18
2023-04-11T11:48:44.806Z,214.45
2023-04-11T11:49:44.796Z,214.32
2023-04-11T11:50:44.795Z,214.63
2023-04-11T11:51:44.779Z,214.55
2023-04-11T11:52:44.760Z,213.58
2023-04-11T11:53:44.711Z,212.54
2023-04-11T11:54:44.702Z,213.37
2023-04-11T11:55:44.685Z,212.04
2023-04-11T11:56:44.690Z,213.03
2023-04-11T11:57:44.703Z,212.45
2023-04-11T11:58:44.660Z,212.19
2023-04-11T11:59:44.618Z,211.21
2023-04-11T12:00:44.603Z,212.37
2023-04-11T12:01:44.661Z,211.30
2023-04-11T12:02:44.963Z,212.22
2023-04-11T12:03:44.789Z,210.33
2023-04-11T12:04:45.507Z,210.20
2023-04-11T12:05:44.688Z,209.71
2023-04-11T12:06:44.719Z,210.98
2023-04-11T12:07:44.765Z,211.88
2023-04-11T12:08:46.350Z,210.76
2023-04-11T12:09:44.782Z,210.94
2023-04-11T12:10:44.763Z,209.32
2023-04-11T12:11:44.767Z,209.02
2023-04-11T12:12:52.915Z,207.70
2023-04-11T12:13:45.740Z,207.82
2023-04-11T12:14:44.690Z,207.85
2023-04-11T12:15:44.659Z,208.88
2023-04-11T12:16:44.613Z,207.07
2023-04-11T12:17:45.387Z,207.92
2023-04-11T12:18:44.546Z,207.50
2023-04-11T12:19:44.484Z,207.42
2023-04-11T12:20:44.441Z,206.02
2023-04-11T12:21:44.395Z,206.59
2023-04-11T12:22:44.360Z,204.90
2023-04-11T12:23:44.334Z,204.13
2023-04-11T12:24:44.280Z,204.76
2023-04-11T12:25:44.278Z,203.72
2023-04-11T12:26:57.570Z,204.90
2023-04-11T12:27:47.056Z,204.97
2023-04-11T12:28:44.171Z,205.37
2023-04-11T12:29:44.119Z,205.54
2023-04-11T12:30:44.062Z,203.97
2023-04-11T12:31:45.897Z,200.85
2023-04-11T12:32:44.017Z,204.93
2023-04-11T12:33:43.955Z,204.46
2023-04-11T12:34:43.892Z,203.39
2023-04-11T12:35:43.844Z,203.26
2023-04-11T12:36:43.810Z,201.67
2023-04-11T12:37:43.762Z,202.33
2023-04-11T12:38:43.727Z,202.91
2023-04-11T12:39:43.684Z,200.16
2023-04-11T12:40:43.685Z,201.45